createdAt,value
2022-09-29T17:03:15.231Z,1.30
2022-09-29T17:05:47.871Z,1.45
2022-09-29T17:08:37.538Z,0.90
2022-09-29T17:11:06.320Z,1.17
2022-09-29T17:13:35.845Z,1.02
2022-09-29T17:16:06.207Z,1.20
2022-09-29T17:18:35.052Z,1.02
2022-09-29T17:21:03.635Z,1.60
2022-09-29T17:23:33.152Z,1.55
2022-09-29T17:26:21.763Z,1.15
2022-09-29T17:28:50.313Z,1.20
2022-09-29T17:31:19.629Z,1.40
2022-09-29T17:33:48.323Z,1.17
2022-09-29T17:36:24.314Z,1.10
2022-09-29T17:38:53.292Z,1.45
2022-09-29T17:41:23.132Z,1.02
2022-09-29T17:43:51.723Z,1.40
2022-09-29T17:46:21.059Z,1.08
2022-09-29T17:48:49.703Z,1.50
2022-09-29T17:51:19.033Z,1.20
2022-09-29T17:53:47.978Z,1.45
2022-09-29T17:56:26.532Z,1.20
2022-09-29T17:58:55.613Z,1.42
2022-09-29T18:01:24.522Z,1.33
2022-09-29T18:03:54.463Z,1.23
2022-09-29T18:06:25.513Z,1.40
2022-09-29T18:08:54.665Z,1.65
2022-09-29T18:11:25.493Z,1.15
2022-09-29T18:13:56.478Z,1.77
2022-09-29T18:16:26.690Z,1.83
2022-09-29T18:18:59.189Z,1.98
2022-09-29T18:21:28.113Z,1.75
2022-09-29T18:23:57.954Z,1.25
2022-09-29T18:26:26.698Z,1.35
2022-09-29T18:28:55.742Z,1.75
2022-09-29T18:31:29.071Z,1.80
2022-09-29T18:33:58.294Z,1.52
2022-09-29T18:36:27.214Z,1.83
2022-09-29T18:38:55.793Z,1.25
2022-09-29T18:41:25.747Z,1.40
2022-09-29T18:43:56.258Z,1.60
2022-09-29T18:46:30.382Z,1.67
2022-09-29T18:48:59.373Z,1.48
2022-09-29T18:51:28.285Z,1.67
2022-09-29T18:53:59.227Z,1.20
2022-09-29T18:56:31.244Z,1.65
2022-09-29T18:59:00.113Z,1.48
2022-09-29T19:01:30.252Z,1.33
2022-09-29T19:03:59.474Z,1.58
2022-09-29T19:06:29.376Z,1.33
2022-09-29T19:08:58.538Z,1.33
2022-09-29T19:11:27.244Z,1.58
2022-09-29T19:13:56.680Z,1.45
2022-09-29T19:16:28.342Z,1.40
2022-09-29T19:18:57.213Z,1.48
2022-09-29T19:21:26.368Z,1.40
2022-09-29T19:23:55.262Z,1.17
2022-09-29T19:26:24.823Z,1.48
2022-09-29T19:28:54.583Z,1.52
2022-09-29T19:31:23.608Z,2.58
2022-09-29T19:33:52.632Z,1.55
2022-09-29T19:36:22.877Z,1.40
2022-09-29T19:38:52.005Z,1.10
2022-09-29T19:41:23.674Z,1.42
2022-09-29T19:43:53.325Z,1.20
2022-09-29T19:46:22.903Z,1.80
2022-09-29T19:48:52.473Z,1.45
2022-09-29T19:51:43.371Z,1.55
2022-09-29T19:54:17.537Z,1.20
2022-09-29T19:56:51.280Z,2.05
2022-09-29T19:59:22.054Z,1.48
2022-09-29T20:01:52.362Z,1.23
2022-09-29T20:04:28.628Z,1.77
2022-09-29T20:06:58.998Z,1.83
2022-09-29T20:09:27.805Z,1.55
2022-09-29T20:11:57.567Z,1.40
2022-09-29T20:14:27.869Z,1.27
2022-09-29T20:16:58.204Z,2.22
2022-09-29T20:19:28.720Z,1.35
2022-09-29T20:21:57.940Z,2.08
2022-09-29T20:24:27.335Z,1.80
2022-09-29T20:26:57.989Z,1.60
2022-09-29T20:29:27.725Z,1.58
2022-09-29T20:31:56.722Z,1.40
2022-09-29T20:34:26.239Z,1.25
2022-09-29T20:36:56.166Z,1.58
2022-09-29T20:39:25.999Z,1.35
2022-09-29T20:41:58.551Z,1.30
2022-09-29T20:44:27.698Z,1.75
2022-09-29T20:46:56.863Z,1.40
2022-09-29T20:49:26.571Z,2.17
2022-09-29T20:51:55.544Z,1.80
2022-09-29T20:54:24.444Z,1.58
2022-09-29T20:56:53.886Z,1.48
2022-09-29T20:59:23.879Z,2.05
2022-09-29T21:01:54.047Z,2.13
2022-09-29T21:04:24.430Z,2.20
2022-09-29T21:06:53.761Z,1.50
2022-09-29T21:09:24.442Z,1.60
2022-09-29T21:11:54.351Z,1.40
2022-09-29T21:14:28.296Z,1.58
2022-09-29T21:16:58.926Z,1.60
2022-09-29T21:19:28.545Z,2.15
2022-09-29T21:21:57.380Z,1.60
2022-09-29T21:24:26.373Z,1.55
2022-09-29T21:26:55.502Z,1.50
2022-09-29T21:29:24.345Z,1.60
2022-09-29T21:31:53.127Z,1.35
2022-09-29T21:34:22.287Z,1.58
2022-09-29T21:36:51.093Z,1.40
2022-09-29T21:39:19.925Z,1.48
2022-09-29T21:41:48.875Z,1.50
2022-09-29T21:44:19.979Z,1.52
2022-09-29T21:46:49.504Z,1.83
2022-09-29T21:49:19.658Z,1.70
2022-09-29T21:51:49.624Z,1.20
2022-09-29T21:54:20.501Z,1.20
2022-09-29T21:56:49.786Z,1.02
2022-09-29T21:59:19.952Z,0.85
2022-09-29T22:01:49.368Z,1.50
2022-09-29T22:04:18.762Z,1.00
2022-09-29T22:06:47.815Z,0.95
2022-09-29T22:09:19.577Z,1.02
2022-09-29T22:11:50.581Z,1.05
2022-09-29T22:14:24.226Z,1.48
2022-09-29T22:16:53.706Z,1.10
2022-09-29T22:19:24.084Z,0.60
2022-09-29T22:21:57.102Z,0.50
2022-09-29T22:24:27.646Z,0.88
2022-09-29T22:26:56.852Z,0.80
2022-09-29T22:29:25.971Z,0.80
2022-09-29T22:31:55.115Z,1.02
2022-09-29T22:34:24.394Z,0.80
2022-09-29T22:36:53.101Z,1.05
2022-09-29T22:39:22.030Z,0.80
2022-09-29T22:41:53.477Z,0.80
2022-09-29T22:44:22.236Z,0.93
2022-09-29T22:46:51.320Z,0.70
2022-09-29T22:49:22.071Z,0.50
2022-09-29T22:51:50.993Z,0.57
2022-09-29T22:54:20.152Z,0.75
2022-09-29T22:56:49.813Z,1.17
2022-09-29T22:59:18.812Z,0.60
2022-09-29T23:01:48.148Z,0.63
2022-09-29T23:04:17.398Z,1.00
2022-09-29T23:06:46.297Z,0.90
2022-09-29T23:09:15.203Z,1.05
2022-09-29T23:11:44.781Z,0.60
2022-09-29T23:14:15.317Z,0.73
2022-09-29T23:16:44.420Z,0.65
2022-09-29T23:19:13.931Z,0.68
2022-09-29T23:21:43.648Z,1.13
2022-09-29T23:24:13.249Z,0.80
2022-09-29T23:26:42.367Z,0.90
2022-09-29T23:29:11.829Z,0.68
2022-09-29T23:31:43.007Z,1.00
2022-09-29T23:34:15.098Z,0.77
2022-09-29T23:36:43.931Z,0.55
2022-09-29T23:39:15.815Z,0.82
2022-09-29T23:41:45.880Z,0.60
2022-09-29T23:44:16.499Z,0.98
2022-09-29T23:46:45.450Z,0.75
2022-09-29T23:49:17.377Z,0.63
2022-09-29T23:51:47.701Z,1.15
2022-09-29T23:54:19.348Z,0.82
2022-09-29T23:56:49.084Z,1.02
2022-09-29T23:59:18.268Z,1.13
